sensor_id;sensor_type;location;lat;lon;timestamp;P1;durP1;ratioP1;P2;durP2;ratioP2
3997;SDS011;61314;53.444;9.902;2022-07-29T00:01:02;7.60;;;2.20;;
3997;SDS011;61314;53.444;9.902;2022-07-29T00:03:29;3.63;;;2.10;;
3997;SDS011;61314;53.444;9.902;2022-07-29T00:05:56;2.60;;;1.60;;
3997;SDS011;61314;53.444;9.902;2022-07-29T00:08:23;2.63;;;2.00;;
3997;SDS011;61314;53.444;9.902;2022-07-29T00:10:50;2.90;;;1.87;;
3997;SDS011;61314;53.444;9.902;2022-07-29T00:13:17;2.73;;;1.60;;
3997;SDS011;61314;53.444;9.902;2022-07-29T00:15:57;2.20;;;2.10;;
3997;SDS011;61314;53.444;9.902;2022-07-29T00:18:30;5.23;;;1.83;;
3997;SDS011;61314;53.444;9.902;2022-07-29T00:20:57;2.90;;;1.77;;
3997;SDS011;61314;53.444;9.902;2022-07-29T00:23:24;5.60;;;1.93;;
3997;SDS011;61314;53.444;9.902;2022-07-29T00:25:51;2.60;;;2.07;;
3997;SDS011;61314;53.444;9.902;2022-07-29T00:28:18;2.13;;;1.70;;
3997;SDS011;61314;53.444;9.902;2022-07-29T00:30:45;3.40;;;2.07;;
3997;SDS011;61314;53.444;9.902;2022-07-29T00:33:11;6.23;;;2.17;;
3997;SDS011;61314;53.444;9.902;2022-07-29T00:35:38;2.90;;;2.00;;
3997;SDS011;61314;53.444;9.902;2022-07-29T00:38:14;3.00;;;1.90;;
3997;SDS011;61314;53.444;9.902;2022-07-29T00:40:43;3.03;;;2.30;;
3997;SDS011;61314;53.444;9.902;2022-07-29T00:43:11;2.90;;;2.40;;
3997;SDS011;61314;53.444;9.902;2022-07-29T00:45:40;6.03;;;2.37;;
3997;SDS011;61314;53.444;9.902;2022-07-29T00:48:07;4.30;;;1.97;;
3997;SDS011;61314;53.444;9.902;2022-07-29T00:50:35;4.90;;;2.40;;
3997;SDS011;61314;53.444;9.902;2022-07-29T00:53:03;2.20;;;2.00;;
3997;SDS011;61314;53.444;9.902;2022-07-29T00:55:30;2.60;;;2.30;;
3997;SDS011;61314;53.444;9.902;2022-07-29T00:57:58;1.90;;;1.80;;
3997;SDS011;61314;53.444;9.902;2022-07-29T01:00:25;4.83;;;2.37;;
3997;SDS011;61314;53.444;9.902;2022-07-29T01:02:53;6.40;;;2.10;;
3997;SDS011;61314;53.444;9.902;2022-07-29T01:05:21;4.23;;;1.90;;
3997;SDS011;61314;53.444;9.902;2022-07-29T01:08:10;2.40;;;1.97;;
3997;SDS011;61314;53.444;9.902;2022-07-29T01:10:39;8.63;;;2.00;;
3997;SDS011;61314;53.444;9.902;2022-07-29T01:13:07;3.60;;;2.07;;
3997;SDS011;61314;53.444;9.902;2022-07-29T01:15:41;3.10;;;1.97;;
3997;SDS011;61314;53.444;9.902;2022-07-29T01:21:09;2.33;;;1.93;;
3997;SDS011;61314;53.444;9.902;2022-07-29T01:29:20;5.43;;;2.00;;
3997;SDS011;61314;53.444;9.902;2022-07-29T01:32:10;2.37;;;2.17;;
3997;SDS011;61314;53.444;9.902;2022-07-29T01:39:49;3.97;;;2.50;;
3997;SDS011;61314;53.444;9.902;2022-07-29T01:44:48;2.60;;;2.40;;
3997;SDS011;61314;53.444;9.902;2022-07-29T01:47:19;4.60;;;2.80;;
3997;SDS011;61314;53.444;9.902;2022-07-29T01:49:49;2.30;;;2.10;;
3997;SDS011;61314;53.444;9.902;2022-07-29T01:52:37;2.73;;;2.00;;
3997;SDS011;61314;53.444;9.902;2022-07-29T01:55:07;7.93;;;3.00;;
3997;SDS011;61314;53.444;9.902;2022-07-29T01:57:36;5.93;;;2.60;;
3997;SDS011;61314;53.444;9.902;2022-07-29T02:00:05;2.47;;;2.27;;
3997;SDS011;61314;53.444;9.902;2022-07-29T02:02:33;3.13;;;2.40;;
3997;SDS011;61314;53.444;9.902;2022-07-29T02:05:02;7.37;;;2.87;;
3997;SDS011;61314;53.444;9.902;2022-07-29T02:07:31;2.97;;;2.70;;
3997;SDS011;61314;53.444;9.902;2022-07-29T02:10:00;7.97;;;2.60;;
3997;SDS011;61314;53.444;9.902;2022-07-29T02:12:29;4.00;;;3.00;;
3997;SDS011;61314;53.444;9.902;2022-07-29T02:14:59;9.73;;;2.53;;
3997;SDS011;61314;53.444;9.902;2022-07-29T02:17:29;4.73;;;2.70;;
3997;SDS011;61314;53.444;9.902;2022-07-29T02:19:59;2.77;;;2.50;;
3997;SDS011;61314;53.444;9.902;2022-07-29T02:22:28;6.70;;;2.47;;
3997;SDS011;61314;53.444;9.902;2022-07-29T02:24:55;4.23;;;2.13;;
3997;SDS011;61314;53.444;9.902;2022-07-29T02:27:26;3.57;;;2.50;;
3997;SDS011;61314;53.444;9.902;2022-07-29T02:29:53;3.87;;;2.93;;
3997;SDS011;61314;53.444;9.902;2022-07-29T02:32:21;2.83;;;2.40;;
3997;SDS011;61314;53.444;9.902;2022-07-29T02:34:49;4.87;;;2.80;;
3997;SDS011;61314;53.444;9.902;2022-07-29T02:37:18;4.53;;;2.63;;
3997;SDS011;61314;53.444;9.902;2022-07-29T02:39:45;3.00;;;2.80;;
3997;SDS011;61314;53.444;9.902;2022-07-29T02:42:15;8.30;;;2.87;;
3997;SDS011;61314;53.444;9.902;2022-07-29T02:44:43;3.97;;;2.93;;
3997;SDS011;61314;53.444;9.902;2022-07-29T02:47:13;3.77;;;3.40;;
3997;SDS011;61314;53.444;9.902;2022-07-29T02:49:48;6.40;;;3.30;;
3997;SDS011;61314;53.444;9.902;2022-07-29T02:52:18;3.40;;;2.93;;
3997;SDS011;61314;53.444;9.902;2022-07-29T02:54:55;7.00;;;2.80;;
3997;SDS011;61314;53.444;9.902;2022-07-29T02:57:31;3.17;;;2.87;;
3997;SDS011;61314;53.444;9.902;2022-07-29T03:00:01;5.93;;;3.30;;
3997;SDS011;61314;53.444;9.902;2022-07-29T03:02:32;6.10;;;3.50;;
3997;SDS011;61314;53.444;9.902;2022-07-29T03:05:01;3.40;;;3.10;;
3997;SDS011;61314;53.444;9.902;2022-07-29T03:07:29;4.20;;;3.23;;
3997;SDS011;61314;53.444;9.902;2022-07-29T03:09:56;3.63;;;3.30;;
3997;SDS011;61314;53.444;9.902;2022-07-29T03:12:24;4.57;;;3.00;;
3997;SDS011;61314;53.444;9.902;2022-07-29T03:14:52;9.50;;;3.10;;
3997;SDS011;61314;53.444;9.902;2022-07-29T03:17:20;7.53;;;3.17;;
3997;SDS011;61314;53.444;9.902;2022-07-29T03:19:48;7.80;;;3.57;;
3997;SDS011;61314;53.444;9.902;2022-07-29T03:22:16;5.03;;;2.97;;
3997;SDS011;61314;53.444;9.902;2022-07-29T03:24:44;8.53;;;3.47;;
3997;SDS011;61314;53.444;9.902;2022-07-29T03:27:12;3.63;;;2.50;;
3997;SDS011;61314;53.444;9.902;2022-07-29T03:29:39;3.10;;;2.33;;
3997;SDS011;61314;53.444;9.902;2022-07-29T03:32:14;3.80;;;2.83;;
3997;SDS011;61314;53.444;9.902;2022-07-29T03:34:49;6.33;;;2.97;;
3997;SDS011;61314;53.444;9.902;2022-07-29T03:37:16;6.07;;;2.90;;
3997;SDS011;61314;53.444;9.902;2022-07-29T03:39:43;4.20;;;3.20;;
3997;SDS011;61314;53.444;9.902;2022-07-29T03:42:11;5.23;;;3.33;;
3997;SDS011;61314;53.444;9.902;2022-07-29T03:44:41;4.70;;;3.30;;
3997;SDS011;61314;53.444;9.902;2022-07-29T03:47:09;6.87;;;3.20;;
3997;SDS011;61314;53.444;9.902;2022-07-29T03:49:37;5.90;;;3.10;;
3997;SDS011;61314;53.444;9.902;2022-07-29T03:52:06;2.63;;;2.43;;
3997;SDS011;61314;53.444;9.902;2022-07-29T03:54:33;8.27;;;2.97;;
3997;SDS011;61314;53.444;9.902;2022-07-29T03:57:01;4.33;;;3.93;;
3997;SDS011;61314;53.444;9.902;2022-07-29T03:59:28;3.63;;;3.10;;
3997;SDS011;61314;53.444;9.902;2022-07-29T04:01:57;3.63;;;3.30;;
3997;SDS011;61314;53.444;9.902;2022-07-29T04:04:25;12.07;;;3.63;;
3997;SDS011;61314;53.444;9.902;2022-07-29T04:06:53;4.80;;;3.03;;
3997;SDS011;61314;53.444;9.902;2022-07-29T04:09:21;5.70;;;3.07;;
3997;SDS011;61314;53.444;9.902;2022-07-29T04:11:48;3.17;;;2.97;;
3997;SDS011;61314;53.444;9.902;2022-07-29T04:14:29;12.97;;;3.10;;
3997;SDS011;61314;53.444;9.902;2022-07-29T04:16:56;11.53;;;3.00;;
3997;SDS011;61314;53.444;9.902;2022-07-29T04:19:23;6.80;;;3.27;;
3997;SDS011;61314;53.444;9.902;2022-07-29T04:21:50;4.60;;;2.87;;
3997;SDS011;61314;53.444;9.902;2022-07-29T04:24:18;5.80;;;3.50;;
3997;SDS011;61314;53.444;9.902;2022-07-29T04:26:46;3.30;;;3.00;;
3997;SDS011;61314;53.444;9.902;2022-07-29T04:29:13;8.93;;;3.07;;
3997;SDS011;61314;53.444;9.902;2022-07-29T04:31:41;5.47;;;3.53;;
3997;SDS011;61314;53.444;9.902;2022-07-29T04:34:08;8.10;;;3.10;;
3997;SDS011;61314;53.444;9.902;2022-07-29T04:36:36;3.93;;;3.63;;
3997;SDS011;61314;53.444;9.902;2022-07-29T04:39:03;6.50;;;3.37;;
3997;SDS011;61314;53.444;9.902;2022-07-29T04:41:30;5.37;;;2.90;;
3997;SDS011;61314;53.444;9.902;2022-07-29T04:44:00;3.73;;;3.30;;
3997;SDS011;61314;53.444;9.902;2022-07-29T04:46:32;11.37;;;3.33;;
3997;SDS011;61314;53.444;9.902;2022-07-29T04:48:59;4.40;;;3.23;;
3997;SDS011;61314;53.444;9.902;2022-07-29T04:51:27;5.13;;;3.13;;
3997;SDS011;61314;53.444;9.902;2022-07-29T04:53:54;12.73;;;2.93;;
3997;SDS011;61314;53.444;9.902;2022-07-29T04:56:21;6.50;;;4.07;;
3997;SDS011;61314;53.444;9.902;2022-07-29T04:58:48;5.03;;;2.93;;
3997;SDS011;61314;53.444;9.902;2022-07-29T05:01:16;8.03;;;3.20;;
3997;SDS011;61314;53.444;9.902;2022-07-29T05:03:43;7.60;;;3.27;;
3997;SDS011;61314;53.444;9.902;2022-07-29T05:06:11;6.93;;;3.63;;
3997;SDS011;61314;53.444;9.902;2022-07-29T05:08:38;5.63;;;3.10;;
3997;SDS011;61314;53.444;9.902;2022-07-29T05:11:07;4.80;;;3.30;;
3997;SDS011;61314;53.444;9.902;2022-07-29T05:13:37;7.97;;;3.07;;
3997;SDS011;61314;53.444;9.902;2022-07-29T05:16:12;4.10;;;2.87;;
3997;SDS011;61314;53.444;9.902;2022-07-29T05:18:40;3.60;;;3.30;;
3997;SDS011;61314;53.444;9.902;2022-07-29T05:21:07;5.23;;;3.60;;
3997;SDS011;61314;53.444;9.902;2022-07-29T05:23:34;5.00;;;3.50;;
3997;SDS011;61314;53.444;9.902;2022-07-29T05:26:01;4.27;;;2.90;;
3997;SDS011;61314;53.444;9.902;2022-07-29T05:28:29;4.80;;;3.13;;
3997;SDS011;61314;53.444;9.902;2022-07-29T05:30:59;5.63;;;3.40;;
3997;SDS011;61314;53.444;9.902;2022-07-29T05:33:27;3.73;;;2.90;;
3997;SDS011;61314;53.444;9.902;2022-07-29T05:36:02;4.27;;;3.47;;
3997;SDS011;61314;53.444;9.902;2022-07-29T05:38:31;7.83;;;3.70;;
3997;SDS011;61314;53.444;9.902;2022-07-29T05:40:59;5.10;;;3.00;;
3997;SDS011;61314;53.444;9.902;2022-07-29T05:43:29;5.30;;;2.97;;
3997;SDS011;61314;53.444;9.902;2022-07-29T05:45:56;6.30;;;3.20;;
3997;SDS011;61314;53.444;9.902;2022-07-29T05:48:24;5.70;;;3.20;;
3997;SDS011;61314;53.444;9.902;2022-07-29T05:50:51;6.70;;;3.37;;
3997;SDS011;61314;53.444;9.902;2022-07-29T05:53:19;3.80;;;3.30;;
3997;SDS011;61314;53.444;9.902;2022-07-29T05:55:47;4.27;;;3.33;;
3997;SDS011;61314;53.444;9.902;2022-07-29T05:58:14;5.47;;;3.73;;
3997;SDS011;61314;53.444;9.902;2022-07-29T06:00:41;9.53;;;3.20;;
3997;SDS011;61314;53.444;9.902;2022-07-29T06:03:08;7.73;;;3.57;;
3997;SDS011;61314;53.444;9.902;2022-07-29T06:05:35;6.30;;;4.03;;
3997;SDS011;61314;53.444;9.902;2022-07-29T06:08:03;3.27;;;2.60;;
3997;SDS011;61314;53.444;9.902;2022-07-29T06:10:36;6.70;;;3.30;;
3997;SDS011;61314;53.444;9.902;2022-07-29T06:13:03;5.53;;;2.97;;
3997;SDS011;61314;53.444;9.902;2022-07-29T06:15:30;3.97;;;3.03;;
3997;SDS011;61314;53.444;9.902;2022-07-29T06:17:57;3.77;;;3.00;;
3997;SDS011;61314;53.444;9.902;2022-07-29T06:20:27;6.07;;;3.33;;
3997;SDS011;61314;53.444;9.902;2022-07-29T06:22:56;5.97;;;3.67;;
3997;SDS011;61314;53.444;9.902;2022-07-29T06:25:24;4.60;;;3.30;;
3997;SDS011;61314;53.444;9.902;2022-07-29T06:27:51;5.63;;;3.50;;
3997;SDS011;61314;53.444;9.902;2022-07-29T06:30:18;5.33;;;3.20;;
3997;SDS011;61314;53.444;9.902;2022-07-29T06:32:46;7.83;;;3.00;;
3997;SDS011;61314;53.444;9.902;2022-07-29T06:35:14;3.20;;;2.93;;
3997;SDS011;61314;53.444;9.902;2022-07-29T06:38:02;4.93;;;3.30;;
3997;SDS011;61314;53.444;9.902;2022-07-29T06:40:40;3.50;;;2.67;;
3997;SDS011;61314;53.444;9.902;2022-07-29T06:43:27;6.23;;;2.77;;
3997;SDS011;61314;53.444;9.902;2022-07-29T06:45:58;6.47;;;3.23;;
3997;SDS011;61314;53.444;9.902;2022-07-29T06:48:29;5.07;;;3.27;;
3997;SDS011;61314;53.444;9.902;2022-07-29T06:50:57;4.60;;;2.57;;
3997;SDS011;61314;53.444;9.902;2022-07-29T06:53:25;4.50;;;2.47;;
3997;SDS011;61314;53.444;9.902;2022-07-29T06:55:52;3.57;;;2.73;;
3997;SDS011;61314;53.444;9.902;2022-07-29T06:58:19;5.03;;;2.87;;
3997;SDS011;61314;53.444;9.902;2022-07-29T07:00:47;4.23;;;2.87;;
3997;SDS011;61314;53.444;9.902;2022-07-29T07:03:15;3.60;;;2.87;;
3997;SDS011;61314;53.444;9.902;2022-07-29T07:05:42;6.40;;;2.90;;
3997;SDS011;61314;53.444;9.902;2022-07-29T07:08:10;2.57;;;2.47;;
3997;SDS011;61314;53.444;9.902;2022-07-29T07:10:38;3.00;;;2.80;;
3997;SDS011;61314;53.444;9.902;2022-07-29T07:13:08;5.57;;;2.70;;
3997;SDS011;61314;53.444;9.902;2022-07-29T07:15:35;4.30;;;2.60;;
3997;SDS011;61314;53.444;9.902;2022-07-29T07:18:05;5.70;;;3.67;;
3997;SDS011;61314;53.444;9.902;2022-07-29T07:20:33;3.63;;;2.80;;
3997;SDS011;61314;53.444;9.902;2022-07-29T07:23:00;10.40;;;4.30;;
3997;SDS011;61314;53.444;9.902;2022-07-29T07:25:27;7.70;;;3.27;;
3997;SDS011;61314;53.444;9.902;2022-07-29T07:27:54;4.70;;;3.30;;
3997;SDS011;61314;53.444;9.902;2022-07-29T07:30:21;2.87;;;2.60;;
3997;SDS011;61314;53.444;9.902;2022-07-29T07:32:48;10.50;;;2.97;;
3997;SDS011;61314;53.444;9.902;2022-07-29T07:35:15;4.87;;;3.10;;
3997;SDS011;61314;53.444;9.902;2022-07-29T07:37:42;4.13;;;3.13;;
3997;SDS011;61314;53.444;9.902;2022-07-29T07:40:09;5.97;;;2.50;;
3997;SDS011;61314;53.444;9.902;2022-07-29T07:42:44;5.77;;;2.40;;
3997;SDS011;61314;53.444;9.902;2022-07-29T07:45:13;6.93;;;2.47;;
3997;SDS011;61314;53.444;9.902;2022-07-29T07:47:41;4.73;;;2.77;;
3997;SDS011;61314;53.444;9.902;2022-07-29T07:50:10;8.83;;;2.90;;
3997;SDS011;61314;53.444;9.902;2022-07-29T07:52:50;3.50;;;3.13;;
3997;SDS011;61314;53.444;9.902;2022-07-29T07:55:20;5.30;;;2.87;;
3997;SDS011;61314;53.444;9.902;2022-07-29T07:57:48;2.43;;;2.23;;
3997;SDS011;61314;53.444;9.902;2022-07-29T08:00:15;5.00;;;2.67;;
3997;SDS011;61314;53.444;9.902;2022-07-29T08:02:43;3.93;;;3.00;;
3997;SDS011;61314;53.444;9.902;2022-07-29T08:05:11;6.13;;;2.83;;
3997;SDS011;61314;53.444;9.902;2022-07-29T08:07:43;6.00;;;2.73;;
3997;SDS011;61314;53.444;9.902;2022-07-29T08:10:11;7.30;;;2.10;;
3997;SDS011;61314;53.444;9.902;2022-07-29T08:12:39;3.23;;;2.50;;
3997;SDS011;61314;53.444;9.902;2022-07-29T08:15:06;6.27;;;2.73;;
3997;SDS011;61314;53.444;9.902;2022-07-29T08:17:34;2.87;;;2.40;;
3997;SDS011;61314;53.444;9.902;2022-07-29T08:20:01;5.60;;;2.40;;
3997;SDS011;61314;53.444;9.902;2022-07-29T08:22:28;4.50;;;2.00;;
3997;SDS011;61314;53.444;9.902;2022-07-29T08:24:56;3.70;;;2.70;;
3997;SDS011;61314;53.444;9.902;2022-07-29T08:27:23;4.60;;;2.30;;
3997;SDS011;61314;53.444;9.902;2022-07-29T08:30:08;5.13;;;2.87;;
3997;SDS011;61314;53.444;9.902;2022-07-29T08:32:36;4.20;;;2.40;;
3997;SDS011;61314;53.444;9.902;2022-07-29T08:35:21;3.43;;;2.73;;
3997;SDS011;61314;53.444;9.902;2022-07-29T08:37:49;13.00;;;3.03;;
3997;SDS011;61314;53.444;9.902;2022-07-29T08:40:16;3.73;;;2.47;;
3997;SDS011;61314;53.444;9.902;2022-07-29T08:42:43;4.13;;;2.40;;
3997;SDS011;61314;53.444;9.902;2022-07-29T08:45:11;5.10;;;2.43;;
3997;SDS011;61314;53.444;9.902;2022-07-29T08:47:39;4.43;;;2.60;;
3997;SDS011;61314;53.444;9.902;2022-07-29T08:50:07;4.67;;;2.73;;
3997;SDS011;61314;53.444;9.902;2022-07-29T08:52:38;3.83;;;2.13;;
3997;SDS011;61314;53.444;9.902;2022-07-29T08:55:07;2.53;;;2.20;;
3997;SDS011;61314;53.444;9.902;2022-07-29T08:57:34;3.17;;;2.20;;
3997;SDS011;61314;53.444;9.902;2022-07-29T09:00:05;2.67;;;2.30;;
3997;SDS011;61314;53.444;9.902;2022-07-29T09:02:40;5.80;;;2.90;;
3997;SDS011;61314;53.444;9.902;2022-07-29T09:05:11;8.83;;;3.10;;
3997;SDS011;61314;53.444;9.902;2022-07-29T09:07:39;8.10;;;2.77;;
3997;SDS011;61314;53.444;9.902;2022-07-29T09:10:09;5.63;;;2.50;;
3997;SDS011;61314;53.444;9.902;2022-07-29T09:12:36;6.47;;;2.57;;
3997;SDS011;61314;53.444;9.902;2022-07-29T09:15:04;9.20;;;2.13;;
3997;SDS011;61314;53.444;9.902;2022-07-29T09:20:14;8.13;;;2.70;;
3997;SDS011;61314;53.444;9.902;2022-07-29T09:22:42;3.30;;;2.50;;
3997;SDS011;61314;53.444;9.902;2022-07-29T09:25:11;8.13;;;2.77;;
3997;SDS011;61314;53.444;9.902;2022-07-29T09:27:38;4.67;;;2.40;;
3997;SDS011;61314;53.444;9.902;2022-07-29T09:30:09;7.37;;;2.67;;
3997;SDS011;61314;53.444;9.902;2022-07-29T09:32:56;3.33;;;2.77;;
3997;SDS011;61314;53.444;9.902;2022-07-29T09:35:25;9.70;;;3.20;;
3997;SDS011;61314;53.444;9.902;2022-07-29T09:37:53;4.40;;;2.23;;
3997;SDS011;61314;53.444;9.902;2022-07-29T09:40:22;9.13;;;3.07;;
3997;SDS011;61314;53.444;9.902;2022-07-29T09:42:49;10.73;;;2.57;;
3997;SDS011;61314;53.444;9.902;2022-07-29T09:45:26;6.00;;;2.37;;
3997;SDS011;61314;53.444;9.902;2022-07-29T09:47:54;5.83;;;2.43;;
3997;SDS011;61314;53.444;9.902;2022-07-29T09:50:33;3.33;;;2.53;;
3997;SDS011;61314;53.444;9.902;2022-07-29T09:53:01;10.17;;;3.10;;
3997;SDS011;61314;53.444;9.902;2022-07-29T09:55:28;2.30;;;2.10;;
3997;SDS011;61314;53.444;9.902;2022-07-29T09:57:55;4.13;;;2.50;;
3997;SDS011;61314;53.444;9.902;2022-07-29T10:00:42;5.23;;;2.23;;
3997;SDS011;61314;53.444;9.902;2022-07-29T10:03:10;4.40;;;2.33;;
3997;SDS011;61314;53.444;9.902;2022-07-29T10:05:38;5.60;;;2.27;;
3997;SDS011;61314;53.444;9.902;2022-07-29T10:08:06;13.23;;;2.43;;
3997;SDS011;61314;53.444;9.902;2022-07-29T10:10:36;4.17;;;2.70;;
3997;SDS011;61314;53.444;9.902;2022-07-29T10:13:06;6.10;;;2.30;;
3997;SDS011;61314;53.444;9.902;2022-07-29T10:15:41;2.23;;;1.77;;
3997;SDS011;61314;53.444;9.902;2022-07-29T10:18:12;10.50;;;3.03;;
3997;SDS011;61314;53.444;9.902;2022-07-29T10:20:40;5.80;;;2.27;;
3997;SDS011;61314;53.444;9.902;2022-07-29T10:23:08;3.93;;;2.40;;
3997;SDS011;61314;53.444;9.902;2022-07-29T10:25:35;2.30;;;2.20;;
3997;SDS011;61314;53.444;9.902;2022-07-29T10:28:03;3.13;;;2.40;;
3997;SDS011;61314;53.444;9.902;2022-07-29T10:30:32;3.53;;;2.40;;
3997;SDS011;61314;53.444;9.902;2022-07-29T10:44:01;3.10;;;2.37;;
3997;SDS011;61314;53.444;9.902;2022-07-29T10:46:44;3.53;;;1.93;;
3997;SDS011;61314;53.444;9.902;2022-07-29T10:49:16;10.90;;;2.53;;
3997;SDS011;61314;53.444;9.902;2022-07-29T10:59:45;5.57;;;2.20;;
3997;SDS011;61314;53.444;9.902;2022-07-29T11:07:38;3.67;;;2.20;;
3997;SDS011;61314;53.444;9.902;2022-07-29T11:15:10;4.10;;;2.23;;
3997;SDS011;61314;53.444;9.902;2022-07-29T11:20:45;3.10;;;1.97;;
3997;SDS011;61314;53.444;9.902;2022-07-29T11:23:17;4.57;;;2.23;;
3997;SDS011;61314;53.444;9.902;2022-07-29T11:25:45;8.50;;;2.00;;
3997;SDS011;61314;53.444;9.902;2022-07-29T11:28:18;4.70;;;1.70;;
3997;SDS011;61314;53.444;9.902;2022-07-29T11:31:07;2.80;;;1.60;;
3997;SDS011;61314;53.444;9.902;2022-07-29T11:33:36;4.13;;;2.10;;
3997;SDS011;61314;53.444;9.902;2022-07-29T11:36:21;5.53;;;1.80;;
3997;SDS011;61314;53.444;9.902;2022-07-29T11:39:04;3.57;;;1.80;;
3997;SDS011;61314;53.444;9.902;2022-07-29T11:41:47;3.50;;;1.70;;
3997;SDS011;61314;53.444;9.902;2022-07-29T11:44:15;2.90;;;1.67;;
3997;SDS011;61314;53.444;9.902;2022-07-29T11:46:44;5.90;;;1.70;;
3997;SDS011;61314;53.444;9.902;2022-07-29T11:49:22;4.70;;;2.57;;
3997;SDS011;61314;53.444;9.902;2022-07-29T11:51:58;2.57;;;1.90;;
3997;SDS011;61314;53.444;9.902;2022-07-29T11:54:33;1.93;;;1.73;;
3997;SDS011;61314;53.444;9.902;2022-07-29T11:57:20;4.47;;;2.17;;
3997;SDS011;61314;53.444;9.902;2022-07-29T12:00:03;3.57;;;2.03;;
3997;SDS011;61314;53.444;9.902;2022-07-29T12:02:39;2.90;;;1.77;;
3997;SDS011;61314;53.444;9.902;2022-07-29T12:05:09;2.97;;;1.90;;
3997;SDS011;61314;53.444;9.902;2022-07-29T12:07:37;4.10;;;2.43;;
3997;SDS011;61314;53.444;9.902;2022-07-29T12:10:10;2.80;;;2.00;;
3997;SDS011;61314;53.444;9.902;2022-07-29T12:12:54;4.93;;;1.37;;
3997;SDS011;61314;53.444;9.902;2022-07-29T12:15:22;2.07;;;1.80;;
3997;SDS011;61314;53.444;9.902;2022-07-29T12:18:17;2.97;;;1.80;;
3997;SDS011;61314;53.444;9.902;2022-07-29T12:20:56;5.60;;;1.90;;
3997;SDS011;61314;53.444;9.902;2022-07-29T12:23:25;8.10;;;1.97;;
3997;SDS011;61314;53.444;9.902;2022-07-29T12:26:00;3.77;;;2.20;;
3997;SDS011;61314;53.444;9.902;2022-07-29T12:28:27;3.67;;;1.80;;
3997;SDS011;61314;53.444;9.902;2022-07-29T12:30:56;4.00;;;2.40;;
3997;SDS011;61314;53.444;9.902;2022-07-29T12:33:25;2.50;;;1.70;;
3997;SDS011;61314;53.444;9.902;2022-07-29T12:35:54;4.37;;;1.87;;
3997;SDS011;61314;53.444;9.902;2022-07-29T12:38:33;2.30;;;2.03;;
3997;SDS011;61314;53.444;9.902;2022-07-29T12:41:01;3.23;;;2.13;;
3997;SDS011;61314;53.444;9.902;2022-07-29T12:43:30;3.20;;;1.60;;
3997;SDS011;61314;53.444;9.902;2022-07-29T12:45:57;4.60;;;2.00;;
3997;SDS011;61314;53.444;9.902;2022-07-29T12:48:40;2.33;;;1.90;;
3997;SDS011;61314;53.444;9.902;2022-07-29T12:51:09;5.97;;;1.90;;
3997;SDS011;61314;53.444;9.902;2022-07-29T12:53:38;2.17;;;1.50;;
3997;SDS011;61314;53.444;9.902;2022-07-29T12:56:05;1.67;;;1.57;;
3997;SDS011;61314;53.444;9.902;2022-07-29T12:59:10;3.00;;;2.13;;
3997;SDS011;61314;53.444;9.902;2022-07-29T13:01:39;2.60;;;1.63;;
3997;SDS011;61314;53.444;9.902;2022-07-29T13:04:06;3.83;;;2.13;;
3997;SDS011;61314;53.444;9.902;2022-07-29T13:06:37;3.03;;;2.03;;
3997;SDS011;61314;53.444;9.902;2022-07-29T13:09:17;2.10;;;1.63;;
3997;SDS011;61314;53.444;9.902;2022-07-29T13:11:49;4.17;;;1.90;;
3997;SDS011;61314;53.444;9.902;2022-07-29T13:14:33;3.57;;;2.23;;
3997;SDS011;61314;53.444;9.902;2022-07-29T13:19:39;4.80;;;2.20;;
3997;SDS011;61314;53.444;9.902;2022-07-29T13:22:09;4.53;;;2.53;;
3997;SDS011;61314;53.444;9.902;2022-07-29T13:27:16;5.80;;;2.03;;
3997;SDS011;61314;53.444;9.902;2022-07-29T13:29:44;2.07;;;1.63;;
3997;SDS011;61314;53.444;9.902;2022-07-29T13:32:12;7.13;;;2.03;;
3997;SDS011;61314;53.444;9.902;2022-07-29T13:34:39;2.63;;;1.43;;
3997;SDS011;61314;53.444;9.902;2022-07-29T13:37:07;3.73;;;1.77;;
3997;SDS011;61314;53.444;9.902;2022-07-29T13:39:33;4.13;;;1.90;;
3997;SDS011;61314;53.444;9.902;2022-07-29T13:42:00;2.17;;;1.47;;
3997;SDS011;61314;53.444;9.902;2022-07-29T13:44:27;2.77;;;1.73;;
3997;SDS011;61314;53.444;9.902;2022-07-29T13:46:54;3.07;;;1.80;;
3997;SDS011;61314;53.444;9.902;2022-07-29T13:49:21;2.20;;;1.53;;
3997;SDS011;61314;53.444;9.902;2022-07-29T13:51:49;3.10;;;1.67;;
3997;SDS011;61314;53.444;9.902;2022-07-29T13:54:16;2.40;;;1.47;;
3997;SDS011;61314;53.444;9.902;2022-07-29T13:56:43;9.23;;;1.90;;
3997;SDS011;61314;53.444;9.902;2022-07-29T13:59:11;5.60;;;1.70;;
3997;SDS011;61314;53.444;9.902;2022-07-29T14:01:38;2.47;;;2.27;;
3997;SDS011;61314;53.444;9.902;2022-07-29T14:04:10;4.03;;;1.83;;
3997;SDS011;61314;53.444;9.902;2022-07-29T14:06:38;7.07;;;2.03;;
3997;SDS011;61314;53.444;9.902;2022-07-29T14:09:05;4.33;;;2.20;;
3997;SDS011;61314;53.444;9.902;2022-07-29T14:11:34;2.03;;;1.80;;
3997;SDS011;61314;53.444;9.902;2022-07-29T14:14:02;3.63;;;1.97;;
3997;SDS011;61314;53.444;9.902;2022-07-29T14:16:28;2.57;;;1.97;;
3997;SDS011;61314;53.444;9.902;2022-07-29T14:18:55;7.13;;;2.37;;
3997;SDS011;61314;53.444;9.902;2022-07-29T14:21:22;6.27;;;1.90;;
3997;SDS011;61314;53.444;9.902;2022-07-29T14:23:50;6.73;;;1.97;;
3997;SDS011;61314;53.444;9.902;2022-07-29T14:26:18;3.17;;;1.73;;
3997;SDS011;61314;53.444;9.902;2022-07-29T14:28:49;5.40;;;1.80;;
3997;SDS011;61314;53.444;9.902;2022-07-29T14:31:16;5.37;;;1.63;;
3997;SDS011;61314;53.444;9.902;2022-07-29T14:33:43;2.03;;;1.83;;
3997;SDS011;61314;53.444;9.902;2022-07-29T14:36:14;1.87;;;1.60;;
3997;SDS011;61314;53.444;9.902;2022-07-29T14:38:41;3.33;;;2.33;;
3997;SDS011;61314;53.444;9.902;2022-07-29T14:41:08;8.47;;;2.20;;
3997;SDS011;61314;53.444;9.902;2022-07-29T14:43:35;3.50;;;2.37;;
3997;SDS011;61314;53.444;9.902;2022-07-29T14:46:02;2.80;;;1.80;;
3997;SDS011;61314;53.444;9.902;2022-07-29T14:48:33;4.40;;;2.50;;
3997;SDS011;61314;53.444;9.902;2022-07-29T14:51:01;3.03;;;2.67;;
3997;SDS011;61314;53.444;9.902;2022-07-29T14:53:30;12.73;;;2.70;;
3997;SDS011;61314;53.444;9.902;2022-07-29T14:55:57;5.23;;;2.20;;
3997;SDS011;61314;53.444;9.902;2022-07-29T14:58:44;4.13;;;2.60;;
3997;SDS011;61314;53.444;9.902;2022-07-29T15:01:16;2.37;;;2.20;;
3997;SDS011;61314;53.444;9.902;2022-07-29T15:03:43;3.73;;;2.13;;
3997;SDS011;61314;53.444;9.902;2022-07-29T15:06:10;3.53;;;2.47;;
3997;SDS011;61314;53.444;9.902;2022-07-29T15:08:37;5.50;;;2.57;;
3997;SDS011;61314;53.444;9.902;2022-07-29T15:11:04;6.30;;;2.27;;
3997;SDS011;61314;53.444;9.902;2022-07-29T15:13:31;3.00;;;2.27;;
3997;SDS011;61314;53.444;9.902;2022-07-29T15:15:58;3.30;;;2.23;;
3997;SDS011;61314;53.444;9.902;2022-07-29T15:18:25;4.50;;;2.70;;
3997;SDS011;61314;53.444;9.902;2022-07-29T15:20:53;4.17;;;2.13;;
3997;SDS011;61314;53.444;9.902;2022-07-29T15:23:20;5.13;;;2.00;;
3997;SDS011;61314;53.444;9.902;2022-07-29T15:25:47;3.97;;;2.60;;
3997;SDS011;61314;53.444;9.902;2022-07-29T15:28:14;4.17;;;2.70;;
3997;SDS011;61314;53.444;9.902;2022-07-29T15:30:41;6.50;;;2.57;;
3997;SDS011;61314;53.444;9.902;2022-07-29T15:33:11;5.10;;;2.80;;
3997;SDS011;61314;53.444;9.902;2022-07-29T15:35:39;6.93;;;2.73;;
3997;SDS011;61314;53.444;9.902;2022-07-29T15:38:06;6.40;;;2.00;;
3997;SDS011;61314;53.444;9.902;2022-07-29T15:40:35;8.97;;;2.50;;
3997;SDS011;61314;53.444;9.902;2022-07-29T15:43:03;3.00;;;2.70;;
3997;SDS011;61314;53.444;9.902;2022-07-29T15:45:35;6.17;;;2.20;;
3997;SDS011;61314;53.444;9.902;2022-07-29T15:48:05;5.27;;;2.63;;
3997;SDS011;61314;53.444;9.902;2022-07-29T15:50:33;4.03;;;2.17;;
3997;SDS011;61314;53.444;9.902;2022-07-29T15:53:00;3.80;;;2.00;;
3997;SDS011;61314;53.444;9.902;2022-07-29T15:55:27;5.93;;;2.27;;
3997;SDS011;61314;53.444;9.902;2022-07-29T15:57:55;4.53;;;2.67;;
3997;SDS011;61314;53.444;9.902;2022-07-29T16:00:25;4.73;;;2.50;;
3997;SDS011;61314;53.444;9.902;2022-07-29T16:02:52;3.33;;;2.07;;
3997;SDS011;61314;53.444;9.902;2022-07-29T16:05:19;5.37;;;2.23;;
3997;SDS011;61314;53.444;9.902;2022-07-29T16:07:46;2.27;;;2.10;;
3997;SDS011;61314;53.444;9.902;2022-07-29T16:10:13;5.73;;;2.37;;
3997;SDS011;61314;53.444;9.902;2022-07-29T16:12:40;4.53;;;2.53;;